Time;durP1;ratioP1;P1;durP2;ratioP2;P2;SDS_P1;SDS_P2;PMS_P1;PMS_P2;Temp;Humidity;BMP_temperature;BMP_pressure;BME280_temperature;BME280_humidity;BME280_pressure;Samples;Min_cycle;Max_cycle;Signal;HPM_P1;HPM_P2
2021/05/31 00:04:00;;;;;;;;;;;;;;;;;;;;;
2021/05/31 00:45:59;;;;;;;;;;;;;;;;;;;;;
2021/05/31 00:51:51;;;;;;;4.73;4.20;;;12.90;65.30;;;;;;4851662;29;20901;-89
2021/05/31 01:13:20;;;;;;;4.60;3.40;;;12.80;65.80;;;;;;4748355;30;20510;-89
2021/05/31 01:27:25;;;;;;;;;;;;;;;;;;;;;
2021/05/31 01:44:25;;;;;;;7.20;2.20;;;12.50;61.80;;;;;;4783011;29;20499;-89
2021/05/31 03:04:01;;;;;;;;;;;;;;;;;;;;;
2021/05/31 03:07:56;;;;;;;7.93;4.13;;;11.30;68.50;;;;;;4829187;29;20439;-89
2021/05/31 03:58:52;;;;;;;9.53;5.00;;;10.70;78.00;;;;;;4919563;28;20468;-88
2021/05/31 04:15:40;;;;;;;7.03;5.30;;;11.00;79.20;;;;;;4914380;28;20444;-87
2021/05/31 04:36:01;;;;;;;6.23;5.60;;;11.00;78.20;;;;;;4817167;29;20486;-88
2021/05/31 04:50:57;;;;;;;6.73;4.40;;;11.40;79.30;;;;;;4972415;28;20461;-85
2021/05/31 04:53:24;;;;;;;4.57;4.17;;;11.30;78.60;;;;;;4965587;28;20553;-86
2021/05/31 04:55:52;;;;;;;7.87;4.27;;;11.40;77.90;;;;;;4978363;28;20440;-86
2021/05/31 04:58:18;;;;;;;5.47;4.90;;;11.30;78.90;;;;;;4978815;28;20447;-87
2021/05/31 05:00:46;;;;;;;10.30;6.17;;;11.50;78.10;;;;;;4977749;28;20455;-86
2021/05/31 05:03:12;;;;;;;4.77;4.37;;;11.60;76.90;;;;;;4981323;28;20425;-87
2021/05/31 05:05:38;;;;;;;14.87;5.60;;;11.70;76.80;;;;;;4981847;28;20447;-86
2021/05/31 05:08:05;;;;;;;20.37;7.33;;;11.80;76.50;;;;;;4978303;28;20453;-86
2021/05/31 05:10:32;;;;;;;20.10;6.23;;;11.90;76.80;;;;;;4964289;28;20477;-84
2021/05/31 05:12:58;;;;;;;9.23;4.93;;;12.50;77.20;;;;;;4962827;28;20486;-86
2021/05/31 05:15:25;;;;;;;7.30;4.70;;;13.50;74.40;;;;;;4961090;28;20825;-86
2021/05/31 05:17:53;;;;;;;6.20;5.03;;;14.50;70.00;;;;;;4961129;28;20459;-87
2021/05/31 05:20:22;;;;;;;6.27;5.10;;;15.40;67.10;;;;;;4959783;28;20459;-86
2021/05/31 05:22:48;;;;;;;5.80;4.67;;;16.20;62.70;;;;;;4959980;28;20452;-86
2021/05/31 05:25:15;;;;;;;5.20;4.80;;;17.00;59.60;;;;;;4958516;28;20818;-86
2021/05/31 05:27:42;;;;;;;6.23;4.70;;;17.60;57.60;;;;;;4976683;28;20429;-85
2021/05/31 05:30:10;;;;;;;5.50;5.00;;;18.10;56.00;;;;;;4968521;28;20473;-86
2021/05/31 05:32:37;;;;;;;5.97;4.80;;;18.90;55.10;;;;;;4960614;28;20486;-86
2021/05/31 05:35:15;;;;;;;4.47;4.07;;;19.30;53.00;;;;;;4958259;28;20814;-86
2021/05/31 05:37:43;;;;;;;5.30;4.60;;;19.80;51.80;;;;;;4958252;28;20452;-87
2021/05/31 05:40:37;;;;;;;5.03;4.30;;;20.40;51.00;;;;;;4959908;28;20511;-87
2021/05/31 05:43:16;;;;;;;5.47;4.97;;;20.70;49.60;;;;;;4958855;29;20484;-87
2021/05/31 05:45:53;;;;;;;6.10;5.10;;;20.90;48.90;;;;;;4957883;29;20816;-87
2021/05/31 05:48:20;;;;;;;5.67;5.17;;;21.50;48.40;;;;;;4957582;28;20453;-87
2021/05/31 05:50:49;;;;;;;10.07;6.10;;;21.90;46.70;;;;;;4959511;28;20468;-86
2021/05/31 05:53:15;;;;;;;6.33;5.60;;;22.30;46.00;;;;;;4957801;29;20478;-87
2021/05/31 05:55:41;;;;;;;4.97;4.23;;;22.40;45.60;;;;;;4960769;28;20489;-86
2021/05/31 05:58:07;;;;;;;5.53;4.10;;;22.60;45.50;;;;;;4955497;28;20470;-87
2021/05/31 06:00:34;;;;;;;4.93;4.53;;;22.90;46.00;;;;;;4961292;28;20474;-85
2021/05/31 06:03:02;;;;;;;5.37;4.87;;;23.00;45.50;;;;;;4956382;29;20797;-83
2021/05/31 06:05:29;;;;;;;7.10;5.20;;;23.30;45.10;;;;;;4959998;29;20527;-81
2021/05/31 06:07:56;;;;;;;5.30;4.40;;;23.60;44.70;;;;;;4963458;28;20456;-81
2021/05/31 06:10:22;;;;;;;5.10;4.17;;;23.80;44.60;;;;;;4963108;28;20461;-81
2021/05/31 06:12:49;;;;;;;4.27;3.97;;;24.00;44.30;;;;;;4966188;28;20512;-83
2021/05/31 06:15:16;;;;;;;4.70;3.70;;;24.30;44.00;;;;;;4963379;28;20475;-83
2021/05/31 06:17:42;;;;;;;3.30;3.00;;;24.60;43.00;;;;;;4961081;29;20456;-83
2021/05/31 06:20:09;;;;;;;3.20;2.90;;;24.60;42.80;;;;;;4960588;28;20472;-81
2021/05/31 06:22:40;;;;;;;5.40;3.83;;;24.90;42.10;;;;;;4958681;28;20447;-82
2021/05/31 06:25:10;;;;;;;4.73;4.30;;;25.40;41.30;;;;;;4968315;29;20445;-82
2021/05/31 06:27:36;;;;;;;3.97;3.57;;;25.90;40.00;;;;;;4966534;28;20665;-83
2021/05/31 06:30:04;;;;;;;3.23;2.93;;;26.20;39.50;;;;;;4963601;28;20477;-83
2021/05/31 06:32:31;;;;;;;3.40;2.93;;;26.10;39.30;;;;;;4964389;28;20454;-84
2021/05/31 06:34:57;;;;;;;4.17;3.87;;;26.30;39.10;;;;;;4962101;28;20445;-81
2021/05/31 06:37:24;;;;;;;6.13;3.57;;;26.30;38.70;;;;;;4963228;28;20456;-80
2021/05/31 06:39:50;;;;;;;3.67;3.10;;;26.70;38.40;;;;;;4958329;28;20476;-86
2021/05/31 06:42:18;;;;;;;3.17;2.87;;;26.80;37.80;;;;;;4956603;28;20446;-84
2021/05/31 06:44:45;;;;;;;2.77;2.57;;;26.70;37.40;;;;;;4957528;29;20437;-84
2021/05/31 06:47:11;;;;;;;3.07;2.80;;;26.40;37.70;;;;;;4960758;28;20951;-85
2021/05/31 06:49:38;;;;;;;3.40;3.10;;;26.20;38.00;;;;;;4956352;28;20476;-84
2021/05/31 06:52:05;;;;;;;3.87;3.57;;;25.70;38.50;;;;;;4955513;28;20441;-82
2021/05/31 06:54:31;;;;;;;5.00;3.47;;;25.10;39.50;;;;;;4957230;29;20621;-83
2021/05/31 06:56:58;;;;;;;3.80;3.50;;;25.60;39.80;;;;;;4956810;29;20513;-84
2021/05/31 06:59:26;;;;;;;3.00;2.80;;;25.90;38.50;;;;;;4956521;28;20469;-84
2021/05/31 07:01:52;;;;;;;6.63;3.30;;;26.00;38.70;;;;;;4952909;28;20827;-83
2021/05/31 07:04:18;;;;;;;5.10;3.40;;;26.00;38.30;;;;;;4959643;29;20916;-84
2021/05/31 07:06:45;;;;;;;3.57;3.27;;;26.80;38.30;;;;;;4959481;29;21096;-83
2021/05/31 07:09:12;;;;;;;3.53;3.23;;;27.30;37.20;;;;;;4956489;28;20556;-83
2021/05/31 07:11:42;;;;;;;3.43;3.13;;;27.20;36.80;;;;;;4959167;28;20496;-83
2021/05/31 07:14:11;;;;;;;3.10;2.90;;;26.40;37.40;;;;;;4966732;28;20493;-83
2021/05/31 07:16:40;;;;;;;4.07;3.70;;;26.20;38.60;;;;;;4965094;28;20457;-83
2021/05/31 07:19:06;;;;;;;4.57;3.03;;;26.90;38.00;;;;;;4964445;28;20469;-83
2021/05/31 07:21:32;;;;;;;7.53;5.20;;;26.70;37.60;;;;;;4973700;28;20437;-83
2021/05/31 07:23:59;;;;;;;3.47;3.17;;;26.50;38.10;;;;;;4972672;28;20446;-83
2021/05/31 07:26:25;;;;;;;6.53;2.97;;;27.10;37.70;;;;;;4970960;28;20468;-84
2021/05/31 07:28:51;;;;;;;3.53;3.23;;;27.60;36.50;;;;;;4963428;28;20487;-84
2021/05/31 07:31:17;;;;;;;3.33;3.00;;;28.10;36.20;;;;;;4962395;28;20485;-84
2021/05/31 07:33:45;;;;;;;3.60;3.30;;;28.80;35.60;;;;;;4959497;28;20488;-83
2021/05/31 07:36:11;;;;;;;2.83;2.63;;;29.70;34.30;;;;;;4962988;28;20453;-84
2021/05/31 07:38:38;;;;;;;3.03;2.83;;;30.60;33.20;;;;;;4963098;28;21108;-85
2021/05/31 07:41:05;;;;;;;4.40;2.93;;;30.50;32.20;;;;;;4968018;28;20521;-84
2021/05/31 07:43:36;;;;;;;3.13;2.90;;;30.20;32.40;;;;;;4959156;28;20441;-84
2021/05/31 07:46:03;;;;;;;3.20;2.77;;;30.00;32.10;;;;;;4959006;28;20954;-84
2021/05/31 07:48:29;;;;;;;3.43;2.93;;;29.90;31.30;;;;;;4962282;28;20449;-85
2021/05/31 07:51:14;;;;;;;3.67;2.70;;;27.90;32.50;;;;;;4964435;28;20445;-85
2021/05/31 07:53:41;;;;;;;2.77;2.37;;;27.50;34.20;;;;;;4956865;29;20491;-86
2021/05/31 07:56:07;;;;;;;4.30;3.10;;;27.90;34.50;;;;;;4958762;29;20547;-85
2021/05/31 07:58:33;;;;;;;2.57;2.37;;;28.80;32.80;;;;;;4963710;28;20452;-86
2021/05/31 08:01:01;;;;;;;3.47;2.80;;;28.30;32.80;;;;;;4960717;28;20441;-85
2021/05/31 08:03:27;;;;;;;2.70;2.50;;;27.90;32.80;;;;;;4958875;29;20453;-85
2021/05/31 08:05:53;;;;;;;3.40;3.00;;;28.00;33.30;;;;;;4963278;29;20453;-85
2021/05/31 08:08:21;;;;;;;3.10;2.80;;;27.60;32.80;;;;;;4955495;28;20449;-85
2021/05/31 08:10:47;;;;;;;3.10;2.67;;;27.50;33.30;;;;;;4955653;28;20450;-83
2021/05/31 08:13:14;;;;;;;2.93;2.73;;;27.30;33.60;;;;;;4959300;29;20480;-83
2021/05/31 08:15:40;;;;;;;2.90;2.70;;;27.30;33.10;;;;;;4957217;28;20441;-84
2021/05/31 08:18:06;;;;;;;3.43;3.13;;;26.30;34.20;;;;;;4957505;28;20955;-83
2021/05/31 08:20:34;;;;;;;10.30;5.23;;;26.00;34.60;;;;;;4957925;28;20472;-82
2021/05/31 08:23:00;;;;;;;3.27;2.90;;;26.90;35.20;;;;;;4957949;28;20565;-84
2021/05/31 08:25:28;;;;;;;3.20;2.90;;;27.50;33.60;;;;;;4958356;29;20449;-82
2021/05/31 08:27:54;;;;;;;2.90;2.70;;;27.30;33.40;;;;;;4967067;28;20452;-82
2021/05/31 08:30:21;;;;;;;3.00;2.80;;;27.10;33.10;;;;;;4967352;28;20481;-81
2021/05/31 08:32:48;;;;;;;3.03;2.83;;;26.80;34.30;;;;;;4966811;29;20449;-83
2021/05/31 08:35:14;;;;;;;3.53;2.80;;;28.20;32.60;;;;;;4962520;28;20910;-84
2021/05/31 08:37:40;;;;;;;2.60;2.40;;;28.80;31.40;;;;;;4964922;28;20436;-83
2021/05/31 08:40:09;;;;;;;2.73;2.50;;;29.40;30.00;;;;;;4961536;28;20475;-82
2021/05/31 08:42:38;;;;;;;3.17;2.90;;;28.40;30.40;;;;;;4969007;29;20449;-82
2021/05/31 08:45:22;;;;;;;3.23;2.93;;;27.60;31.70;;;;;;4980189;28;20473;-81
2021/05/31 08:47:51;;;;;;;3.03;2.73;;;27.20;32.90;;;;;;4974856;29;20449;-80
2021/05/31 08:50:21;;;;;;;3.17;2.67;;;27.80;32.20;;;;;;4970477;28;20492;-81
2021/05/31 08:52:48;;;;;;;2.70;2.50;;;27.40;33.20;;;;;;4969681;28;20441;-82
2021/05/31 08:55:17;;;;;;;3.00;2.77;;;28.60;32.20;;;;;;4977742;28;20958;-84
2021/05/31 08:57:45;;;;;;;3.70;2.93;;;29.90;30.10;;;;;;4974918;29;20945;-84
2021/05/31 09:00:14;;;;;;;2.87;2.67;;;30.40;29.80;;;;;;4966698;28;20468;-84
2021/05/31 09:02:41;;;;;;;3.23;2.50;;;30.40;29.80;;;;;;4961762;28;20827;-84
2021/05/31 09:05:09;;;;;;;3.93;3.03;;;30.50;29.30;;;;;;4964740;28;20445;-85
2021/05/31 09:07:36;;;;;;;3.43;3.13;;;28.60;29.70;;;;;;4957082;28;20452;-82
2021/05/31 09:10:04;;;;;;;3.10;2.80;;;28.80;30.60;;;;;;4961247;28;20493;-81
2021/05/31 09:12:35;;;;;;;2.80;2.60;;;28.40;30.30;;;;;;4962537;28;20433;-82
2021/05/31 09:15:05;;;;;;;2.93;2.70;;;27.60;31.70;;;;;;4967990;28;20448;-84
2021/05/31 09:17:33;;;;;;;2.40;2.20;;;27.70;31.20;;;;;;4977458;28;20495;-83
2021/05/31 09:20:00;;;;;;;2.40;2.20;;;27.20;32.00;;;;;;4964701;28;20458;-83
2021/05/31 09:22:28;;;;;;;2.90;2.70;;;28.80;31.20;;;;;;4962864;28;20492;-83
2021/05/31 09:24:58;;;;;;;3.00;2.70;;;29.60;30.00;;;;;;4966238;28;20522;-83
2021/05/31 09:27:25;;;;;;;2.90;2.70;;;28.90;30.20;;;;;;4967306;28;20454;-83
2021/05/31 09:29:57;;;;;;;15.53;4.90;;;27.90;31.70;;;;;;4970760;28;20465;-83
2021/05/31 09:32:25;;;;;;;2.80;2.60;;;29.50;30.90;;;;;;4971240;28;20576;-83
2021/05/31 09:35:07;;;;;;;4.17;2.97;;;30.30;29.50;;;;;;4963762;29;20855;-83
2021/05/31 09:37:43;;;;;;;7.67;2.90;;;31.10;29.60;;;;;;4964451;28;20953;-83
2021/05/31 09:40:10;;;;;;;2.30;2.13;;;29.70;29.30;;;;;;4961015;28;20600;-84
2021/05/31 09:42:48;;;;;;;3.03;2.83;;;29.70;30.00;;;;;;4962716;28;20444;-83
2021/05/31 09:45:14;;;;;;;2.80;2.60;;;30.10;29.30;;;;;;4962951;29;20918;-84
2021/05/31 09:47:43;;;;;;;3.10;2.33;;;30.40;29.20;;;;;;4961914;28;20930;-83
2021/05/31 09:50:10;;;;;;;2.57;2.37;;;31.50;28.20;;;;;;4963181;28;20473;-83
2021/05/31 09:52:38;;;;;;;2.73;2.53;;;31.50;27.60;;;;;;4965491;28;20445;-83
2021/05/31 09:55:06;;;;;;;2.87;2.40;;;31.70;28.50;;;;;;4970600;29;20481;-84
2021/05/31 09:57:35;;;;;;;3.33;2.63;;;32.70;27.70;;;;;;4966571;29;20474;-84
2021/05/31 10:00:06;;;;;;;2.67;2.47;;;33.40;27.00;;;;;;4970917;28;20548;-85
2021/05/31 10:02:43;;;;;;;2.93;2.40;;;33.20;26.20;;;;;;4968664;28;20441;-84
2021/05/31 10:05:16;;;;;;;3.03;2.73;;;33.40;26.20;;;;;;4958288;28;20437;-84
2021/05/31 10:07:49;;;;;;;2.40;2.20;;;34.30;26.60;;;;;;4957353;29;20445;-84
2021/05/31 10:10:15;;;;;;;2.60;2.40;;;34.40;25.80;;;;;;4959331;28;20491;-84
2021/05/31 10:12:41;;;;;;;3.00;2.70;;;33.90;25.70;;;;;;4959591;29;20524;-85
2021/05/31 10:15:10;;;;;;;3.47;2.50;;;34.10;26.10;;;;;;4959790;29;20512;-84
2021/05/31 10:17:38;;;;;;;3.37;3.10;;;33.60;26.00;;;;;;4958965;28;20457;-84
2021/05/31 10:20:05;;;;;;;2.70;2.50;;;34.40;26.40;;;;;;4962844;28;20468;-84
2021/05/31 10:22:34;;;;;;;3.43;3.10;;;34.00;25.70;;;;;;4962999;29;20475;-84
2021/05/31 10:25:03;;;;;;;2.77;2.57;;;34.70;25.20;;;;;;4962116;29;20445;-84
2021/05/31 10:27:32;;;;;;;2.60;2.40;;;33.90;25.60;;;;;;4961767;28;21034;-84
2021/05/31 10:30:00;;;;;;;2.57;2.37;;;32.30;26.60;;;;;;4961094;28;20475;-84
2021/05/31 10:32:27;;;;;;;3.50;3.20;;;31.50;26.90;;;;;;4960835;29;20433;-84
2021/05/31 10:34:54;;;;;;;4.17;3.80;;;32.30;27.00;;;;;;4959796;29;21206;-84
2021/05/31 10:37:23;;;;;;;3.50;3.20;;;33.70;25.90;;;;;;4960123;28;20531;-84
2021/05/31 10:40:06;;;;;;;3.20;2.90;;;33.90;26.60;;;;;;4966898;28;20549;-84
2021/05/31 10:42:40;;;;;;;3.23;2.73;;;34.50;26.20;;;;;;4968598;28;20546;-84
2021/05/31 10:45:20;;;;;;;3.30;2.50;;;35.40;25.30;;;;;;4961515;28;20518;-84
2021/05/31 10:47:56;;;;;;;2.87;2.67;;;35.30;25.00;;;;;;4970220;29;20456;-84
2021/05/31 10:50:27;;;;;;;3.20;2.90;;;35.80;25.00;;;;;;4970986;28;20460;-84
2021/05/31 10:52:53;;;;;;;2.60;2.40;;;35.90;24.70;;;;;;4963724;29;20488;-84
2021/05/31 10:55:21;;;;;;;2.93;2.70;;;36.20;24.40;;;;;;4962099;29;20441;-84
2021/05/31 10:57:47;;;;;;;3.03;2.83;;;36.50;24.10;;;;;;4961247;28;20441;-83
2021/05/31 11:00:22;;;;;;;3.10;2.90;;;35.70;24.40;;;;;;4960737;28;20449;-83
2021/05/31 11:02:48;;;;;;;2.87;2.67;;;34.00;24.70;;;;;;4961012;29;20449;-84
2021/05/31 11:05:15;;;;;;;3.80;2.43;;;34.50;26.00;;;;;;4961228;29;20441;-83
2021/05/31 11:07:41;;;;;;;2.60;2.40;;;34.70;26.10;;;;;;4960456;28;20977;-83
2021/05/31 11:10:17;;;;;;;3.40;2.70;;;35.20;25.50;;;;;;4959056;28;20468;-83
2021/05/31 11:12:45;;;;;;;3.63;2.90;;;33.80;25.30;;;;;;4974632;28;20520;-82
2021/05/31 11:15:14;;;;;;;2.97;2.40;;;32.70;25.90;;;;;;4965236;28;20496;-83
2021/05/31 11:17:48;;;;;;;3.23;2.53;;;32.40;26.40;;;;;;4958811;28;20440;-84
2021/05/31 11:20:17;;;;;;;3.10;2.70;;;32.70;26.50;;;;;;4962228;28;20519;-84
2021/05/31 11:22:52;;;;;;;3.33;3.03;;;33.60;26.20;;;;;;4959229;28;20464;-84
2021/05/31 11:25:22;;;;;;;2.77;2.57;;;35.10;25.90;;;;;;4958884;29;20455;-83
2021/05/31 11:27:54;;;;;;;3.53;2.93;;;34.50;25.50;;;;;;4958927;29;20449;-83
2021/05/31 11:30:25;;;;;;;2.87;2.67;;;34.80;25.10;;;;;;4959005;28;20453;-83
2021/05/31 11:32:53;;;;;;;3.50;2.77;;;32.00;26.20;;;;;;4958856;28;20481;-83
2021/05/31 11:35:20;;;;;;;2.77;2.57;;;31.10;27.70;;;;;;4960183;28;21056;-84
2021/05/31 11:37:47;;;;;;;4.07;2.60;;;32.80;27.10;;;;;;4959961;28;20813;-84
2021/05/31 11:40:21;;;;;;;2.90;2.70;;;34.30;26.10;;;;;;4961499;28;20844;-84
2021/05/31 11:42:48;;;;;;;3.37;3.07;;;34.60;24.70;;;;;;4963394;28;20436;-84
2021/05/31 11:45:18;;;;;;;2.40;2.20;;;34.20;25.00;;;;;;4967803;29;20445;-84
2021/05/31 11:47:45;;;;;;;4.23;2.83;;;34.00;25.20;;;;;;4962516;28;20508;-85
2021/05/31 11:50:19;;;;;;;2.60;2.40;;;34.00;25.10;;;;;;4972025;28;20465;-83
2021/05/31 11:52:45;;;;;;;2.90;2.70;;;34.80;25.00;;;;;;4964434;28;20447;-84
2021/05/31 11:55:19;;;;;;;3.33;3.03;;;34.80;25.10;;;;;;4967868;28;20528;-85
2021/05/31 11:57:46;;;;;;;2.83;2.63;;;34.60;25.30;;;;;;4953054;29;20449;-83
2021/05/31 12:00:27;;;;;;;21.27;19.27;;;34.20;24.90;;;;;;4970813;28;20491;-84
2021/05/31 12:02:54;;;;;;;2.63;2.27;;;33.60;25.40;;;;;;4966177;29;20454;-85
2021/05/31 12:12:53;;;;;;;;;;;;;;;;;;;;;
2021/05/31 12:16:03;;;;;;;2.80;2.60;;;35.90;23.80;;;;;;4920068;29;20883;-88
2021/05/31 12:19:22;;;;;;;2.90;2.60;;;36.10;23.40;;;;;;4920236;29;20451;-88
2021/05/31 12:25:31;;;;;;;2.70;2.07;;;34.40;23.50;;;;;;4904530;29;20451;-88
2021/05/31 12:32:09;;;;;;;2.87;2.57;;;33.60;24.20;;;;;;4924124;29;20471;-88
2021/05/31 12:34:49;;;;;;;;;;;;;;;;;;;;;
2021/05/31 12:37:27;;;;;;;2.30;2.10;;;33.50;24.60;;;;;;4975824;28;20450;-87
2021/05/31 12:40:07;;;;;;;3.00;2.77;;;32.20;25.10;;;;;;4978778;28;20485;-88
2021/05/31 12:42:36;;;;;;;2.83;2.57;;;32.20;26.00;;;;;;4975529;28;20456;-87
2021/05/31 12:45:21;;;;;;;3.27;2.97;;;33.30;25.00;;;;;;4977257;28;20448;-88
2021/05/31 12:48:22;;;;;;;3.50;3.00;;;33.90;24.80;;;;;;4976764;28;20451;-88
2021/05/31 12:51:12;;;;;;;4.10;3.80;;;33.50;24.50;;;;;;4973692;28;20489;-87
2021/05/31 12:53:52;;;;;;;2.83;2.60;;;32.80;25.40;;;;;;4979819;28;20472;-88
2021/05/31 12:59:32;;;;;;;3.30;3.00;;;31.70;25.40;;;;;;4976519;28;20851;-88
2021/05/31 13:02:33;;;;;;;3.03;2.83;;;31.70;26.40;;;;;;4974923;28;20463;-88
2021/05/31 13:05:47;;;;;;;3.10;2.43;;;32.70;25.20;;;;;;4977918;28;20467;-88
2021/05/31 13:08:47;;;;;;;2.47;2.27;;;32.90;24.90;;;;;;4986294;28;20433;-86
2021/05/31 13:11:54;;;;;;;;;;;;;;;;;;;;;
2021/05/31 13:15:10;;;;;;;4.03;3.53;;;34.60;23.30;;;;;;4973915;28;20907;-88
2021/05/31 13:20:55;;;;;;;2.67;2.40;;;33.20;25.00;;;;;;4971460;28;20612;-88
2021/05/31 13:23:55;;;;;;;2.43;2.23;;;33.30;25.10;;;;;;4977507;28;20449;-88
2021/05/31 13:30:14;;;;;;;;;;;;;;;;;;;;;
2021/05/31 13:33:10;;;;;;;2.27;2.10;;;34.30;23.60;;;;;;4978713;28;20443;-88
2021/05/31 13:42:21;;;;;;;4.20;2.90;;;36.20;23.00;;;;;;4976514;28;20956;-88
2021/05/31 13:44:55;;;;;;;2.80;2.60;;;36.40;22.10;;;;;;4980093;28;20452;-88
2021/05/31 13:51:37;;;;;;;2.73;2.53;;;34.00;23.40;;;;;;4971435;28;20910;-87
2021/05/31 13:54:19;;;;;;;2.77;2.57;;;33.30;24.90;;;;;;4996262;28;20483;-88
2021/05/31 13:56:54;;;;;;;3.90;2.77;;;33.30;25.10;;;;;;4995186;28;20432;-87
2021/05/31 13:59:47;;;;;;;2.73;2.53;;;32.30;25.60;;;;;;4997994;28;20439;-87
2021/05/31 14:02:26;;;;;;;2.63;2.43;;;32.10;25.40;;;;;;4952977;28;20520;-87
2021/05/31 14:05:55;;;;;;;5.80;2.80;;;32.30;25.80;;;;;;4993219;28;20507;-87
2021/05/31 14:09:30;;;;;;;3.33;3.07;;;32.90;25.60;;;;;;4969000;28;20455;-87
2021/05/31 14:12:32;;;;;;;3.20;3.00;;;31.80;25.80;;;;;;4983883;28;20444;-88
2021/05/31 14:15:33;;;;;;;;;;;;;;;;;;;;;
2021/05/31 14:18:36;;;;;;;2.93;2.73;;;31.30;26.20;;;;;;4975995;28;20503;-88
2021/05/31 14:21:20;;;;;;;3.27;2.93;;;30.80;27.40;;;;;;4997223;28;20428;-87
2021/05/31 14:24:10;;;;;;;2.50;2.40;;;30.70;27.60;;;;;;4977995;28;20511;-88
2021/05/31 14:29:49;;;;;;;3.27;3.00;;;29.50;28.20;;;;;;4964587;28;20424;-87
2021/05/31 14:32:22;;;;;;;3.87;3.37;;;28.00;29.70;;;;;;4977927;28;20450;-87
2021/05/31 14:35:09;;;;;;;3.30;3.00;;;27.10;31.60;;;;;;4973435;28;20495;-87
2021/05/31 14:37:50;;;;;;;5.13;3.30;;;26.30;32.20;;;;;;4975280;28;20452;-87
2021/05/31 14:40:18;;;;;;;4.03;3.73;;;25.40;33.20;;;;;;4984585;28;20450;-87
2021/05/31 14:42:50;;;;;;;3.27;2.67;;;25.00;33.40;;;;;;4996040;28;20502;-88
2021/05/31 14:45:26;;;;;;;4.43;4.03;;;24.80;34.40;;;;;;4995847;28;20463;-87
2021/05/31 14:47:55;;;;;;;5.97;3.57;;;24.60;34.40;;;;;;4987763;28;20917;-87
2021/05/31 14:50:41;;;;;;;2.67;2.43;;;24.40;34.70;;;;;;4978906;28;20447;-89
2021/05/31 14:53:07;;;;;;;4.50;4.20;;;24.30;35.20;;;;;;4981021;28;20470;-87
2021/05/31 14:55:34;;;;;;;3.60;3.30;;;24.10;36.20;;;;;;4976972;28;20482;-87
2021/05/31 14:58:10;;;;;;;3.37;2.80;;;23.90;36.40;;;;;;4977381;28;20454;-86
2021/05/31 15:00:44;;;;;;;2.90;2.70;;;23.80;36.90;;;;;;4973728;28;20453;-87
2021/05/31 15:03:23;;;;;;;3.33;3.00;;;23.60;36.40;;;;;;4976549;28;20915;-87
2021/05/31 15:05:51;;;;;;;3.73;3.43;;;23.50;36.90;;;;;;4980241;28;20465;-87
2021/05/31 15:08:42;;;;;;;3.70;2.60;;;23.40;36.70;;;;;;4988125;28;20437;-88
2021/05/31 15:11:15;;;;;;;2.93;2.73;;;23.20;36.80;;;;;;4974670;28;20590;-88
2021/05/31 15:13:48;;;;;;;6.07;3.30;;;23.10;36.50;;;;;;4974157;28;21047;-88
2021/05/31 15:16:38;;;;;;;2.90;2.70;;;23.20;36.90;;;;;;4980539;28;20484;-87
2021/05/31 15:19:04;;;;;;;3.60;3.33;;;23.40;37.00;;;;;;4992276;28;20577;-88
2021/05/31 15:21:34;;;;;;;3.93;3.40;;;23.60;36.70;;;;;;4986111;28;20434;-88
2021/05/31 15:24:01;;;;;;;5.30;3.80;;;23.70;36.80;;;;;;4978233;28;20476;-88
2021/05/31 15:26:27;;;;;;;2.70;2.50;;;23.60;37.30;;;;;;4976744;28;20500;-87
2021/05/31 15:28:53;;;;;;;3.83;3.10;;;23.40;37.40;;;;;;4976608;28;20457;-88
2021/05/31 15:31:20;;;;;;;3.47;3.17;;;23.30;37.10;;;;;;4977587;28;20444;-89
2021/05/31 15:33:47;;;;;;;3.17;2.90;;;22.90;37.30;;;;;;4984736;28;20480;-89
2021/05/31 15:36:13;;;;;;;2.80;2.60;;;22.90;38.60;;;;;;4979554;28;20456;-88
2021/05/31 15:38:40;;;;;;;3.17;2.87;;;22.90;37.60;;;;;;4977015;28;20459;-86
2021/05/31 15:41:07;;;;;;;18.17;4.00;;;22.90;38.00;;;;;;4975657;28;20444;-89
2021/05/31 15:43:34;;;;;;;195.47;24.73;;;23.00;38.70;;;;;;4975684;28;20456;-90
2021/05/31 15:46:01;;;;;;;11.93;3.10;;;23.10;38.80;;;;;;4977092;28;20460;-89
2021/05/31 15:48:28;;;;;;;28.20;5.00;;;23.10;39.70;;;;;;4977525;28;20777;-89
2021/05/31 15:50:57;;;;;;;3.57;3.27;;;23.20;40.50;;;;;;4973626;28;21008;-88
2021/05/31 15:53:23;;;;;;;41.67;7.23;;;23.40;38.50;;;;;;4973146;28;20525;-90
2021/05/31 15:55:49;;;;;;;3.00;2.70;;;23.20;38.60;;;;;;4973838;28;20503;-89
2021/05/31 15:58:17;;;;;;;3.67;2.93;;;22.90;38.30;;;;;;4972730;28;20499;-88
2021/05/31 16:00:47;;;;;;;3.33;3.03;;;22.70;38.70;;;;;;4974850;28;20449;-88
2021/05/31 16:03:13;;;;;;;3.10;2.90;;;22.60;38.70;;;;;;4974323;28;20487;-89
2021/05/31 16:05:40;;;;;;;2.97;2.60;;;22.60;38.90;;;;;;4976508;28;20464;-91
2021/05/31 16:08:07;;;;;;;7.60;2.77;;;22.70;38.20;;;;;;4976313;28;20447;-90
2021/05/31 16:10:36;;;;;;;3.70;2.93;;;22.60;38.70;;;;;;4979386;28;20439;-87
2021/05/31 16:13:10;;;;;;;6.27;3.33;;;22.60;38.70;;;;;;4941409;28;1066894;-89
2021/05/31 16:15:37;;;;;;;15.60;4.10;;;22.60;38.50;;;;;;4974567;28;20221;-90
2021/05/31 16:18:04;;;;;;;3.10;2.73;;;22.60;39.20;;;;;;4975269;28;20448;-88
2021/05/31 16:20:30;;;;;;;5.60;3.30;;;22.70;39.50;;;;;;4975483;28;20531;-87
2021/05/31 16:23:04;;;;;;;2.93;2.63;;;22.80;39.40;;;;;;4975112;28;20449;-86
2021/05/31 16:25:32;;;;;;;9.27;3.47;;;22.60;39.00;;;;;;4993936;28;20454;-89
2021/05/31 16:27:58;;;;;;;3.47;2.90;;;22.40;38.90;;;;;;4992506;28;20487;-89
2021/05/31 16:30:24;;;;;;;4.83;2.80;;;22.30;39.60;;;;;;4997830;28;20431;-87
2021/05/31 16:32:51;;;;;;;3.40;3.10;;;22.30;39.50;;;;;;4994672;28;20497;-89
2021/05/31 16:35:17;;;;;;;7.87;3.23;;;22.20;39.80;;;;;;4979680;28;20491;-87
2021/05/31 16:37:43;;;;;;;3.20;2.90;;;22.20;40.60;;;;;;4987665;28;20449;-88
2021/05/31 16:40:10;;;;;;;3.50;3.20;;;22.20;40.50;;;;;;4996909;28;20436;-89
2021/05/31 16:42:38;;;;;;;3.53;2.60;;;22.20;39.60;;;;;;4992228;28;20500;-89
2021/05/31 16:45:07;;;;;;;3.60;3.30;;;22.30;39.10;;;;;;4993050;28;20454;-88
2021/05/31 16:47:33;;;;;;;2.93;2.73;;;22.10;39.00;;;;;;4974074;28;20933;-88
2021/05/31 16:49:59;;;;;;;2.90;2.70;;;22.00;38.90;;;;;;4975086;28;20451;-87
2021/05/31 16:52:26;;;;;;;3.10;2.90;;;22.10;39.40;;;;;;4974382;28;20455;-87
2021/05/31 16:54:52;;;;;;;4.30;3.90;;;22.10;39.60;;;;;;4984001;28;20484;-87
2021/05/31 16:57:19;;;;;;;3.00;2.50;;;22.00;38.80;;;;;;4980010;28;20454;-87
2021/05/31 16:59:46;;;;;;;3.57;3.10;;;22.10;39.30;;;;;;4991744;28;20462;-89
2021/05/31 17:02:13;;;;;;;3.87;3.53;;;22.10;39.90;;;;;;4996552;28;20438;-87
2021/05/31 17:04:39;;;;;;;3.73;3.43;;;22.10;40.20;;;;;;4989011;28;20451;-89
2021/05/31 17:07:05;;;;;;;3.37;3.07;;;22.10;40.30;;;;;;4997474;28;20432;-86
2021/05/31 17:09:33;;;;;;;3.40;3.10;;;22.00;40.50;;;;;;4980386;28;20458;-86
2021/05/31 17:15:03;;;;;;;3.30;3.00;;;22.00;40.40;;;;;;4978826;28;20792;-87
2021/05/31 17:20:17;;;;;;;3.03;2.77;;;21.80;39.70;;;;;;5000351;28;20451;-88
2021/05/31 17:22:44;;;;;;;3.73;3.43;;;21.80;39.80;;;;;;4991274;28;20451;-87
2021/05/31 17:25:11;;;;;;;2.60;2.40;;;21.70;40.50;;;;;;4975412;28;20860;-87
2021/05/31 17:27:37;;;;;;;2.87;2.67;;;21.60;40.10;;;;;;4986196;28;20463;-89
2021/05/31 17:30:04;;;;;;;3.23;2.60;;;21.60;39.90;;;;;;4995941;28;20451;-86
2021/05/31 17:32:34;;;;;;;4.87;3.57;;;21.50;40.30;;;;;;4978605;28;20493;-87
2021/05/31 17:35:04;;;;;;;3.20;2.90;;;21.50;40.30;;;;;;4977842;28;20555;-88
2021/05/31 17:37:31;;;;;;;3.13;2.50;;;21.40;39.80;;;;;;4978143;28;20447;-87
2021/05/31 17:40:02;;;;;;;3.70;3.40;;;21.30;40.20;;;;;;4985240;28;20459;-87
2021/05/31 17:42:28;;;;;;;3.03;2.80;;;21.30;40.50;;;;;;4992200;28;20451;-89
2021/05/31 17:44:56;;;;;;;3.07;2.80;;;21.30;40.60;;;;;;4995735;28;20452;-88
2021/05/31 17:47:22;;;;;;;3.70;3.40;;;21.30;41.20;;;;;;4980878;28;20447;-89
2021/05/31 17:49:50;;;;;;;3.80;3.50;;;21.30;41.20;;;;;;4991189;28;20551;-88
2021/05/31 17:52:17;;;;;;;3.00;2.70;;;21.20;41.80;;;;;;4990486;28;20447;-90
2021/05/31 17:54:43;;;;;;;4.93;3.60;;;21.20;41.80;;;;;;4987958;28;20548;-88
2021/05/31 17:57:10;;;;;;;3.00;2.67;;;21.20;41.60;;;;;;4982904;28;20447;-88
2021/05/31 17:59:36;;;;;;;3.60;3.30;;;21.10;41.80;;;;;;4977903;28;20505;-89
2021/05/31 18:02:05;;;;;;;5.63;3.90;;;21.10;42.20;;;;;;4980308;28;20442;-88
2021/05/31 18:04:31;;;;;;;3.53;2.90;;;21.00;42.10;;;;;;4983589;28;20479;-88
2021/05/31 18:06:59;;;;;;;2.83;2.63;;;21.00;42.40;;;;;;4977778;28;21005;-87
2021/05/31 18:09:27;;;;;;;2.80;2.60;;;20.90;42.80;;;;;;4975196;28;20448;-88
2021/05/31 18:11:53;;;;;;;3.60;3.00;;;20.90;43.10;;;;;;4972832;28;20465;-88
2021/05/31 18:14:19;;;;;;;3.27;3.00;;;20.90;43.70;;;;;;4975640;28;20485;-88
2021/05/31 18:16:51;;;;;;;3.47;2.93;;;20.70;43.90;;;;;;4975099;28;20430;-87
2021/05/31 18:19:17;;;;;;;3.33;3.03;;;20.70;44.40;;;;;;4976644;28;20448;-87
2021/05/31 18:21:43;;;;;;;3.07;2.87;;;20.80;44.80;;;;;;4976211;28;20429;-87
2021/05/31 18:24:11;;;;;;;4.67;3.37;;;20.80;44.80;;;;;;4976335;28;20846;-88